Terminal Aerodrome Forecast
Issued by NWS Sterling, VA

Current Version | Previous Version | Text Only | Print | Product List | Glossary Off
Versions: 1 2 3 4 5 6 7 8 9 10 11 12 13 14 15 16 17

000
FTUS41 KLWX 030831 AAA
TAFMRB
TAF AMD
KMRB 030831Z 0309/0406 27004KT 2SM BR FEW090
     FM031200 VRB03KT 5SM BR SCT090
     FM031400 32004KT P6SM SCT090
     FM031600 32006KT P6SM BKN060=

USA.gov is the U.S. government's official web portal to all federal, state and local government web resources and services.